sensor_id;sensor_type;location;lat;lon;timestamp;pressure;altitude;pressure_sealevel;temperature;humidity
6218;BME280;3142;48.206;11.550;2024-02-23T00:01:03;93848.94;;;9.47;77.26
6218;BME280;3142;48.206;11.550;2024-02-23T00:03:30;93875.75;;;9.42;77.96
6218;BME280;3142;48.206;11.550;2024-02-23T00:05:57;93849.66;;;9.42;76.96
6218;BME280;3142;48.206;11.550;2024-02-23T00:08:25;93850.97;;;9.45;76.14
6218;BME280;3142;48.206;11.550;2024-02-23T00:10:51;93849.56;;;9.37;75.74
6218;BME280;3142;48.206;11.550;2024-02-23T00:13:17;93862.63;;;9.37;75.92
6218;BME280;3142;48.206;11.550;2024-02-23T00:15:44;93849.03;;;9.35;75.87
6218;BME280;3142;48.206;11.550;2024-02-23T00:18:10;93852.91;;;9.33;76.46
6218;BME280;3142;48.206;11.550;2024-02-23T00:20:38;93845.09;;;9.33;77.13
6218;BME280;3142;48.206;11.550;2024-02-23T00:23:04;93872.41;;;9.30;75.86
6218;BME280;3142;48.206;11.550;2024-02-23T00:25:32;93869.97;;;9.24;76.74
6218;BME280;3142;48.206;11.550;2024-02-23T00:27:59;93857.41;;;9.20;76.16
6218;BME280;3142;48.206;11.550;2024-02-23T00:30:25;93854.25;;;9.18;74.19
6218;BME280;3142;48.206;11.550;2024-02-23T00:32:52;93849.59;;;9.20;74.14
6218;BME280;3142;48.206;11.550;2024-02-23T00:35:19;93863.97;;;9.23;73.43
6218;BME280;3142;48.206;11.550;2024-02-23T00:37:45;93868.41;;;9.23;73.10
6218;BME280;3142;48.206;11.550;2024-02-23T00:40:12;93862.88;;;9.19;74.13
6218;BME280;3142;48.206;11.550;2024-02-23T00:42:40;93877.63;;;9.13;74.33
6218;BME280;3142;48.206;11.550;2024-02-23T00:45:07;93867.75;;;9.15;74.10
6218;BME280;3142;48.206;11.550;2024-02-23T00:47:34;93878.72;;;9.17;72.05
6218;BME280;3142;48.206;11.550;2024-02-23T00:50:02;93882.06;;;9.13;72.49
6218;BME280;3142;48.206;11.550;2024-02-23T00:52:28;93895.19;;;9.18;72.91
6218;BME280;3142;48.206;11.550;2024-02-23T00:54:55;93889.97;;;9.18;72.38
6218;BME280;3142;48.206;11.550;2024-02-23T00:57:21;93901.75;;;9.20;72.58
6218;BME280;3142;48.206;11.550;2024-02-23T00:59:53;93897.78;;;9.18;71.57
6218;BME280;3142;48.206;11.550;2024-02-23T01:02:20;93903.00;;;9.18;73.29
6218;BME280;3142;48.206;11.550;2024-02-23T01:04:46;93903.97;;;9.12;72.77
6218;BME280;3142;48.206;11.550;2024-02-23T01:07:13;93903.97;;;9.12;72.08
6218;BME280;3142;48.206;11.550;2024-02-23T01:09:39;93913.44;;;9.18;72.48
6218;BME280;3142;48.206;11.550;2024-02-23T01:12:06;93900.31;;;9.13;71.77
6218;BME280;3142;48.206;11.550;2024-02-23T01:14:32;93914.94;;;9.14;71.09
6218;BME280;3142;48.206;11.550;2024-02-23T01:17:00;93899.84;;;9.16;70.92
6218;BME280;3142;48.206;11.550;2024-02-23T01:19:27;93922.28;;;9.17;70.25
6218;BME280;3142;48.206;11.550;2024-02-23T01:21:53;93927.75;;;9.15;69.06
6218;BME280;3142;48.206;11.550;2024-02-23T01:24:24;93924.13;;;9.16;68.65
6218;BME280;3142;48.206;11.550;2024-02-23T01:26:52;93929.50;;;9.10;70.15
6218;BME280;3142;48.206;11.550;2024-02-23T01:29:19;93925.53;;;9.07;70.12
6218;BME280;3142;48.206;11.550;2024-02-23T01:31:46;93930.03;;;9.12;70.15
6218;BME280;3142;48.206;11.550;2024-02-23T01:34:13;93925.13;;;9.15;69.39
6218;BME280;3142;48.206;11.550;2024-02-23T01:36:40;93954.63;;;9.16;69.19
6218;BME280;3142;48.206;11.550;2024-02-23T01:39:06;93944.91;;;9.11;69.07
6218;BME280;3142;48.206;11.550;2024-02-23T01:41:33;93938.59;;;9.07;69.19
6218;BME280;3142;48.206;11.550;2024-02-23T01:43:59;93937.69;;;9.02;69.64
6218;BME280;3142;48.206;11.550;2024-02-23T01:46:26;93935.47;;;8.94;69.26
6218;BME280;3142;48.206;11.550;2024-02-23T01:48:53;93936.16;;;8.89;70.04
6218;BME280;3142;48.206;11.550;2024-02-23T01:51:21;93930.47;;;8.92;69.94
6218;BME280;3142;48.206;11.550;2024-02-23T01:53:47;93927.63;;;8.94;70.75
6218;BME280;3142;48.206;11.550;2024-02-23T01:56:15;93944.19;;;8.87;69.52
6218;BME280;3142;48.206;11.550;2024-02-23T01:58:43;93939.69;;;8.83;69.44
6218;BME280;3142;48.206;11.550;2024-02-23T02:01:10;93945.03;;;8.76;70.32
6218;BME280;3142;48.206;11.550;2024-02-23T02:03:38;93950.47;;;8.75;70.84
6218;BME280;3142;48.206;11.550;2024-02-23T02:06:05;93948.53;;;8.82;69.92
6218;BME280;3142;48.206;11.550;2024-02-23T02:08:33;93944.91;;;8.83;69.95
6218;BME280;3142;48.206;11.550;2024-02-23T02:11:00;93949.44;;;8.76;69.57
6218;BME280;3142;48.206;11.550;2024-02-23T02:13:27;93952.75;;;8.71;70.33
6218;BME280;3142;48.206;11.550;2024-02-23T02:15:54;93958.69;;;8.67;71.24
6218;BME280;3142;48.206;11.550;2024-02-23T02:18:20;93962.97;;;8.73;70.17
6218;BME280;3142;48.206;11.550;2024-02-23T02:20:51;93978.38;;;8.74;70.59
6218;BME280;3142;48.206;11.550;2024-02-23T02:23:18;93966.59;;;8.72;70.44
6218;BME280;3142;48.206;11.550;2024-02-23T02:25:52;93964.06;;;8.77;70.25
6218;BME280;3142;48.206;11.550;2024-02-23T02:28:18;93970.09;;;8.77;71.10
6218;BME280;3142;48.206;11.550;2024-02-23T02:30:45;93982.00;;;8.73;70.57
6218;BME280;3142;48.206;11.550;2024-02-23T02:33:11;93979.31;;;8.68;70.50
6218;BME280;3142;48.206;11.550;2024-02-23T02:35:37;93978.50;;;8.68;70.08
6218;BME280;3142;48.206;11.550;2024-02-23T02:38:04;93987.91;;;8.69;71.15
6218;BME280;3142;48.206;11.550;2024-02-23T02:40:30;94000.16;;;8.68;70.60
6218;BME280;3142;48.206;11.550;2024-02-23T02:42:58;94007.97;;;8.68;70.10
6218;BME280;3142;48.206;11.550;2024-02-23T02:45:25;93997.44;;;8.63;70.47
6218;BME280;3142;48.206;11.550;2024-02-23T02:47:51;94001.84;;;8.63;69.63
6218;BME280;3142;48.206;11.550;2024-02-23T02:50:18;94005.03;;;8.65;71.13
6218;BME280;3142;48.206;11.550;2024-02-23T02:52:44;94004.25;;;8.64;70.89
6218;BME280;3142;48.206;11.550;2024-02-23T02:55:11;94008.09;;;8.61;70.81
6218;BME280;3142;48.206;11.550;2024-02-23T02:57:38;93995.50;;;8.58;70.45
6218;BME280;3142;48.206;11.550;2024-02-23T03:00:10;94012.19;;;8.57;70.31
6218;BME280;3142;48.206;11.550;2024-02-23T03:02:37;94004.59;;;8.56;70.61
6218;BME280;3142;48.206;11.550;2024-02-23T03:05:04;94001.75;;;8.57;70.22
6218;BME280;3142;48.206;11.550;2024-02-23T03:07:31;94010.03;;;8.54;71.02
6218;BME280;3142;48.206;11.550;2024-02-23T03:09:57;94000.41;;;8.55;70.64
6218;BME280;3142;48.206;11.550;2024-02-23T03:12:24;94007.91;;;8.51;70.34
6218;BME280;3142;48.206;11.550;2024-02-23T03:14:50;93997.13;;;8.48;70.54
6218;BME280;3142;48.206;11.550;2024-02-23T03:17:18;94004.94;;;8.48;70.19
6218;BME280;3142;48.206;11.550;2024-02-23T03:19:45;94002.91;;;8.50;71.12
6218;BME280;3142;48.206;11.550;2024-02-23T03:22:11;93998.69;;;8.49;69.88
6218;BME280;3142;48.206;11.550;2024-02-23T03:24:38;93997.56;;;8.45;70.73
6218;BME280;3142;48.206;11.550;2024-02-23T03:27:04;94005.72;;;8.48;70.41
6218;BME280;3142;48.206;11.550;2024-02-23T03:29:30;94004.13;;;8.47;70.21
6218;BME280;3142;48.206;11.550;2024-02-23T03:31:57;93994.50;;;8.48;70.73
6218;BME280;3142;48.206;11.550;2024-02-23T03:34:25;94004.25;;;8.52;70.57
6218;BME280;3142;48.206;11.550;2024-02-23T03:36:51;94012.41;;;8.44;69.34
6218;BME280;3142;48.206;11.550;2024-02-23T03:39:18;94003.81;;;8.44;70.25
6218;BME280;3142;48.206;11.550;2024-02-23T03:41:44;94020.00;;;8.46;70.75
6218;BME280;3142;48.206;11.550;2024-02-23T03:44:11;94020.78;;;8.46;70.29
6218;BME280;3142;48.206;11.550;2024-02-23T03:46:37;94024.66;;;8.44;71.68
6218;BME280;3142;48.206;11.550;2024-02-23T03:49:04;94029.78;;;8.39;72.78
6218;BME280;3142;48.206;11.550;2024-02-23T03:51:31;94017.41;;;8.34;72.51
6218;BME280;3142;48.206;11.550;2024-02-23T03:54:00;94015.34;;;8.13;75.36
6218;BME280;3142;48.206;11.550;2024-02-23T03:56:26;94021.69;;;8.05;75.88
6218;BME280;3142;48.206;11.550;2024-02-23T03:58:53;94025.44;;;8.09;75.30
6218;BME280;3142;48.206;11.550;2024-02-23T04:01:19;94027.03;;;8.10;75.64
6218;BME280;3142;48.206;11.550;2024-02-23T04:03:45;94036.28;;;8.06;76.30
6218;BME280;3142;48.206;11.550;2024-02-23T04:06:12;94032.00;;;8.00;76.50
6218;BME280;3142;48.206;11.550;2024-02-23T04:08:40;94031.41;;;7.98;76.81
6218;BME280;3142;48.206;11.550;2024-02-23T04:11:07;94030.41;;;7.99;76.80
6218;BME280;3142;48.206;11.550;2024-02-23T04:13:33;94024.75;;;8.02;76.95
6218;BME280;3142;48.206;11.550;2024-02-23T04:16:00;94032.66;;;7.95;76.38
6218;BME280;3142;48.206;11.550;2024-02-23T04:18:28;94034.47;;;7.95;77.42
6218;BME280;3142;48.206;11.550;2024-02-23T04:20:54;94036.63;;;7.98;76.77
6218;BME280;3142;48.206;11.550;2024-02-23T04:23:21;94033.34;;;8.02;76.53
6218;BME280;3142;48.206;11.550;2024-02-23T04:25:48;94034.25;;;8.08;76.68
6218;BME280;3142;48.206;11.550;2024-02-23T04:28:16;94035.25;;;8.07;76.75
6218;BME280;3142;48.206;11.550;2024-02-23T04:30:43;94039.34;;;8.03;77.21
6218;BME280;3142;48.206;11.550;2024-02-23T04:33:09;94028.69;;;8.05;76.56
6218;BME280;3142;48.206;11.550;2024-02-23T04:35:35;94031.19;;;7.99;76.11
6218;BME280;3142;48.206;11.550;2024-02-23T04:38:02;94032.78;;;8.00;75.75
6218;BME280;3142;48.206;11.550;2024-02-23T04:40:29;94028.91;;;7.91;75.95
6218;BME280;3142;48.206;11.550;2024-02-23T04:42:57;94035.13;;;7.90;74.45
6218;BME280;3142;48.206;11.550;2024-02-23T04:45:23;94018.94;;;7.88;73.73
6218;BME280;3142;48.206;11.550;2024-02-23T04:47:49;94022.22;;;7.84;74.58
6218;BME280;3142;48.206;11.550;2024-02-23T04:50:16;94020.16;;;7.74;72.85
6218;BME280;3142;48.206;11.550;2024-02-23T04:52:43;94020.41;;;7.72;72.00
6218;BME280;3142;48.206;11.550;2024-02-23T04:55:09;94018.66;;;7.66;71.03
6218;BME280;3142;48.206;11.550;2024-02-23T04:57:36;94028.28;;;7.66;70.91
6218;BME280;3142;48.206;11.550;2024-02-23T05:00:05;94016.19;;;7.60;71.54
6218;BME280;3142;48.206;11.550;2024-02-23T05:02:33;94006.53;;;7.49;72.34
6218;BME280;3142;48.206;11.550;2024-02-23T05:05:00;94014.09;;;7.50;71.93
6218;BME280;3142;48.206;11.550;2024-02-23T05:07:27;94016.25;;;7.53;72.36
6218;BME280;3142;48.206;11.550;2024-02-23T05:09:53;94004.97;;;7.59;72.25
6218;BME280;3142;48.206;11.550;2024-02-23T05:12:20;94001.13;;;7.62;73.59
6218;BME280;3142;48.206;11.550;2024-02-23T05:14:46;94000.81;;;7.70;73.16
6218;BME280;3142;48.206;11.550;2024-02-23T05:17:14;94004.56;;;7.74;72.42
6218;BME280;3142;48.206;11.550;2024-02-23T05:19:40;94017.00;;;7.72;73.32
6218;BME280;3142;48.206;11.550;2024-02-23T05:22:07;94020.75;;;7.76;72.68
6218;BME280;3142;48.206;11.550;2024-02-23T05:24:33;94022.53;;;7.76;72.74
6218;BME280;3142;48.206;11.550;2024-02-23T05:26:59;94027.97;;;7.74;73.25
6218;BME280;3142;48.206;11.550;2024-02-23T05:29:27;94028.88;;;7.68;74.06
6218;BME280;3142;48.206;11.550;2024-02-23T05:31:54;94038.13;;;7.64;74.36
6218;BME280;3142;48.206;11.550;2024-02-23T05:34:22;94040.72;;;7.64;74.36
6218;BME280;3142;48.206;11.550;2024-02-23T05:36:48;94039.72;;;7.65;74.46
6218;BME280;3142;48.206;11.550;2024-02-23T05:39:15;94038.94;;;7.64;74.49
6218;BME280;3142;48.206;11.550;2024-02-23T05:41:43;94036.56;;;7.63;75.05
6218;BME280;3142;48.206;11.550;2024-02-23T05:44:10;94047.09;;;7.68;74.42
6218;BME280;3142;48.206;11.550;2024-02-23T05:46:38;94041.66;;;7.69;74.49
6218;BME280;3142;48.206;11.550;2024-02-23T05:49:04;94047.78;;;7.75;74.71
6218;BME280;3142;48.206;11.550;2024-02-23T05:51:32;94045.41;;;7.73;74.23
6218;BME280;3142;48.206;11.550;2024-02-23T05:54:00;94044.97;;;7.77;75.03
6218;BME280;3142;48.206;11.550;2024-02-23T05:56:27;94056.94;;;7.78;74.48
6218;BME280;3142;48.206;11.550;2024-02-23T05:58:53;94061.69;;;7.81;75.36
6218;BME280;3142;48.206;11.550;2024-02-23T06:01:20;94062.94;;;7.78;74.96
6218;BME280;3142;48.206;11.550;2024-02-23T06:03:46;94065.94;;;7.82;75.50
6218;BME280;3142;48.206;11.550;2024-02-23T06:06:13;94072.78;;;7.76;75.28
6218;BME280;3142;48.206;11.550;2024-02-23T06:08:41;94074.84;;;7.74;75.64
6218;BME280;3142;48.206;11.550;2024-02-23T06:11:09;94080.84;;;7.75;75.56
6218;BME280;3142;48.206;11.550;2024-02-23T06:13:35;94076.72;;;7.67;74.86
6218;BME280;3142;48.206;11.550;2024-02-23T06:16:02;94079.13;;;7.68;76.29
6218;BME280;3142;48.206;11.550;2024-02-23T06:18:29;94079.91;;;7.69;75.49
6218;BME280;3142;48.206;11.550;2024-02-23T06:20:55;94085.53;;;7.66;76.31
6218;BME280;3142;48.206;11.550;2024-02-23T06:23:21;94080.00;;;7.62;75.74
6218;BME280;3142;48.206;11.550;2024-02-23T06:25:49;94085.53;;;7.66;76.15
6218;BME280;3142;48.206;11.550;2024-02-23T06:28:17;94094.81;;;7.62;75.72
6218;BME280;3142;48.206;11.550;2024-02-23T06:30:43;94089.03;;;7.60;75.72
6218;BME280;3142;48.206;11.550;2024-02-23T06:33:09;94099.81;;;7.63;76.18
6218;BME280;3142;48.206;11.550;2024-02-23T06:35:36;94097.66;;;7.60;75.20
6218;BME280;3142;48.206;11.550;2024-02-23T06:38:03;94098.66;;;7.59;75.82
6218;BME280;3142;48.206;11.550;2024-02-23T06:40:30;94101.03;;;7.61;74.57
6218;BME280;3142;48.206;11.550;2024-02-23T06:42:58;94096.50;;;7.56;75.32
6218;BME280;3142;48.206;11.550;2024-02-23T06:45:25;94095.28;;;7.59;74.30
6218;BME280;3142;48.206;11.550;2024-02-23T06:47:51;94100.47;;;7.59;73.87
6218;BME280;3142;48.206;11.550;2024-02-23T06:50:18;94088.94;;;7.55;73.89
6218;BME280;3142;48.206;11.550;2024-02-23T06:52:44;94084.94;;;7.52;74.08
6218;BME280;3142;48.206;11.550;2024-02-23T06:55:12;94085.31;;;7.56;73.45
6218;BME280;3142;48.206;11.550;2024-02-23T06:57:38;94085.31;;;7.56;74.05
6218;BME280;3142;48.206;11.550;2024-02-23T07:00:08;94089.34;;;7.52;74.08
6218;BME280;3142;48.206;11.550;2024-02-23T07:02:34;94092.63;;;7.47;73.34
6218;BME280;3142;48.206;11.550;2024-02-23T07:05:02;94091.59;;;7.48;73.89
6218;BME280;3142;48.206;11.550;2024-02-23T07:07:29;94097.81;;;7.47;73.41
6218;BME280;3142;48.206;11.550;2024-02-23T07:09:58;94102.22;;;7.47;72.76
6218;BME280;3142;48.206;11.550;2024-02-23T07:12:24;94094.88;;;7.43;72.82
6218;BME280;3142;48.206;11.550;2024-02-23T07:14:52;94101.66;;;7.45;73.06
6218;BME280;3142;48.206;11.550;2024-02-23T07:17:20;94107.09;;;7.43;73.02
6218;BME280;3142;48.206;11.550;2024-02-23T07:19:46;94113.44;;;7.47;73.04
6218;BME280;3142;48.206;11.550;2024-02-23T07:22:13;94121.91;;;7.42;72.71
6218;BME280;3142;48.206;11.550;2024-02-23T07:24:41;94121.69;;;7.44;71.98
6218;BME280;3142;48.206;11.550;2024-02-23T07:27:08;94123.41;;;7.50;72.70
6218;BME280;3142;48.206;11.550;2024-02-23T07:29:35;94125.41;;;7.48;72.29
6218;BME280;3142;48.206;11.550;2024-02-23T07:32:01;94137.63;;;7.48;72.27
6218;BME280;3142;48.206;11.550;2024-02-23T07:34:30;94136.06;;;7.47;71.60
6218;BME280;3142;48.206;11.550;2024-02-23T07:36:57;94133.44;;;7.47;71.08
6218;BME280;3142;48.206;11.550;2024-02-23T07:39:23;94137.88;;;7.46;71.42
6218;BME280;3142;48.206;11.550;2024-02-23T07:41:50;94135.84;;;7.48;71.16
6218;BME280;3142;48.206;11.550;2024-02-23T07:44:16;94133.91;;;7.43;70.67
6218;BME280;3142;48.206;11.550;2024-02-23T07:46:43;94135.03;;;7.48;71.52
6218;BME280;3142;48.206;11.550;2024-02-23T07:49:09;94130.84;;;7.47;70.26
6218;BME280;3142;48.206;11.550;2024-02-23T07:51:37;94130.63;;;7.48;71.40
6218;BME280;3142;48.206;11.550;2024-02-23T07:54:03;94125.53;;;7.41;69.73
6218;BME280;3142;48.206;11.550;2024-02-23T07:56:30;94131.94;;;7.39;70.00
6218;BME280;3142;48.206;11.550;2024-02-23T07:58:57;94123.63;;;7.49;69.76
6218;BME280;3142;48.206;11.550;2024-02-23T08:01:24;94130.75;;;7.53;69.55
6218;BME280;3142;48.206;11.550;2024-02-23T08:03:51;94124.97;;;7.51;69.89
6218;BME280;3142;48.206;11.550;2024-02-23T08:06:17;94123.31;;;7.57;69.85
6218;BME280;3142;48.206;11.550;2024-02-23T08:08:46;94112.53;;;7.53;69.40
6218;BME280;3142;48.206;11.550;2024-02-23T08:11:12;94103.03;;;7.47;69.54
6218;BME280;3142;48.206;11.550;2024-02-23T08:13:39;94104.38;;;7.50;69.44
6218;BME280;3142;48.206;11.550;2024-02-23T08:16:06;94091.38;;;7.50;68.99
6218;BME280;3142;48.206;11.550;2024-02-23T08:18:32;94091.59;;;7.48;68.46
6218;BME280;3142;48.206;11.550;2024-02-23T08:20:59;94106.75;;;7.51;67.98
6218;BME280;3142;48.206;11.550;2024-02-23T08:23:27;94115.59;;;7.50;68.48
6218;BME280;3142;48.206;11.550;2024-02-23T08:25:55;94107.84;;;7.62;68.55
6218;BME280;3142;48.206;11.550;2024-02-23T08:28:23;94094.03;;;7.61;67.78
6218;BME280;3142;48.206;11.550;2024-02-23T08:30:50;94084.72;;;7.54;68.99
6218;BME280;3142;48.206;11.550;2024-02-23T08:33:16;94090.84;;;7.59;68.65
6218;BME280;3142;48.206;11.550;2024-02-23T08:35:43;94098.13;;;7.69;67.56
6218;BME280;3142;48.206;11.550;2024-02-23T08:38:10;94097.97;;;7.82;67.85
6218;BME280;3142;48.206;11.550;2024-02-23T08:40:36;94109.06;;;7.89;66.99
6218;BME280;3142;48.206;11.550;2024-02-23T08:43:06;94108.81;;;7.91;67.08
6218;BME280;3142;48.206;11.550;2024-02-23T08:45:32;94114.81;;;7.91;66.12
6218;BME280;3142;48.206;11.550;2024-02-23T08:47:59;94107.59;;;7.93;67.02
6218;BME280;3142;48.206;11.550;2024-02-23T08:50:25;94111.56;;;7.96;65.89
6218;BME280;3142;48.206;11.550;2024-02-23T08:52:52;94107.38;;;7.95;66.46
6218;BME280;3142;48.206;11.550;2024-02-23T08:55:18;94110.97;;;7.94;66.53
6218;BME280;3142;48.206;11.550;2024-02-23T08:57:44;94127.63;;;7.93;66.08
6218;BME280;3142;48.206;11.550;2024-02-23T09:00:13;94147.31;;;7.89;65.21
6218;BME280;3142;48.206;11.550;2024-02-23T09:02:40;94155.56;;;7.86;65.15
6218;BME280;3142;48.206;11.550;2024-02-23T09:05:07;94160.00;;;7.85;63.98
6218;BME280;3142;48.206;11.550;2024-02-23T09:07:34;94158.25;;;7.79;64.62
6218;BME280;3142;48.206;11.550;2024-02-23T09:10:01;94155.88;;;7.78;64.52
6218;BME280;3142;48.206;11.550;2024-02-23T09:12:29;94162.03;;;7.83;65.70
6218;BME280;3142;48.206;11.550;2024-02-23T09:14:55;94168.16;;;7.89;64.63
6218;BME280;3142;48.206;11.550;2024-02-23T09:17:23;94187.09;;;7.96;65.20
6218;BME280;3142;48.206;11.550;2024-02-23T09:19:50;94189.88;;;7.94;65.22
6218;BME280;3142;48.206;11.550;2024-02-23T09:22:17;94191.13;;;7.92;65.68
6218;BME280;3142;48.206;11.550;2024-02-23T09:24:44;94184.22;;;7.86;65.18
6218;BME280;3142;48.206;11.550;2024-02-23T09:27:10;94183.19;;;7.87;65.94
6218;BME280;3142;48.206;11.550;2024-02-23T09:29:37;94182.06;;;7.83;66.03
6218;BME280;3142;48.206;11.550;2024-02-23T09:32:04;94185.22;;;7.85;65.51
6218;BME280;3142;48.206;11.550;2024-02-23T09:34:32;94190.44;;;7.85;65.03
6218;BME280;3142;48.206;11.550;2024-02-23T09:36:59;94186.25;;;7.84;64.69
6218;BME280;3142;48.206;11.550;2024-02-23T09:39:26;94185.56;;;7.88;65.75
6218;BME280;3142;48.206;11.550;2024-02-23T09:41:55;94183.88;;;7.94;65.13
6218;BME280;3142;48.206;11.550;2024-02-23T09:44:26;94184.34;;;7.91;64.49
6218;BME280;3142;48.206;11.550;2024-02-23T09:46:58;94182.31;;;7.93;63.88
6218;BME280;3142;48.206;11.550;2024-02-23T09:49:24;94186.59;;;7.87;62.28
6218;BME280;3142;48.206;11.550;2024-02-23T09:51:53;94191.28;;;7.79;62.19
6218;BME280;3142;48.206;11.550;2024-02-23T09:54:21;94192.53;;;7.76;61.40
6218;BME280;3142;48.206;11.550;2024-02-23T09:56:47;94177.72;;;7.77;60.92
6218;BME280;3142;48.206;11.550;2024-02-23T09:59:14;94178.66;;;7.82;60.93
6218;BME280;3142;48.206;11.550;2024-02-23T10:01:41;94170.84;;;7.82;61.07
6218;BME280;3142;48.206;11.550;2024-02-23T10:04:08;94172.56;;;7.88;60.35
6218;BME280;3142;48.206;11.550;2024-02-23T10:06:34;94175.97;;;7.89;60.24
6218;BME280;3142;48.206;11.550;2024-02-23T10:09:02;94188.97;;;7.89;59.81
6218;BME280;3142;48.206;11.550;2024-02-23T10:11:30;94190.34;;;7.91;60.35
6218;BME280;3142;48.206;11.550;2024-02-23T10:13:56;94193.97;;;7.90;60.39
6218;BME280;3142;48.206;11.550;2024-02-23T10:16:23;94194.75;;;7.91;61.60
6218;BME280;3142;48.206;11.550;2024-02-23T10:18:50;94189.53;;;7.91;61.29
6218;BME280;3142;48.206;11.550;2024-02-23T10:21:17;94187.72;;;7.91;61.34
6218;BME280;3142;48.206;11.550;2024-02-23T10:23:44;94184.13;;;7.92;62.52
6218;BME280;3142;48.206;11.550;2024-02-23T10:26:12;94171.88;;;7.93;61.84
6218;BME280;3142;48.206;11.550;2024-02-23T10:28:45;94166.03;;;7.97;62.84
6218;BME280;3142;48.206;11.550;2024-02-23T10:31:12;94157.19;;;7.98;62.61
6218;BME280;3142;48.206;11.550;2024-02-23T10:33:38;94155.84;;;7.96;63.70
6218;BME280;3142;48.206;11.550;2024-02-23T10:36:07;94159.94;;;8.03;63.90
6218;BME280;3142;48.206;11.550;2024-02-23T10:38:35;94162.31;;;8.05;63.65
6218;BME280;3142;48.206;11.550;2024-02-23T10:41:05;94163.59;;;8.14;64.12
6218;BME280;3142;48.206;11.550;2024-02-23T10:43:41;94168.78;;;8.14;63.98
6218;BME280;3142;48.206;11.550;2024-02-23T10:46:09;94172.53;;;8.18;63.17
6218;BME280;3142;48.206;11.550;2024-02-23T10:48:38;94183.84;;;8.12;61.99
6218;BME280;3142;48.206;11.550;2024-02-23T10:51:06;94180.34;;;8.18;62.01
6218;BME280;3142;48.206;11.550;2024-02-23T10:53:34;94168.91;;;8.19;60.83
6218;BME280;3142;48.206;11.550;2024-02-23T10:56:00;94172.88;;;8.22;60.89
6218;BME280;3142;48.206;11.550;2024-02-23T10:58:27;94171.75;;;8.18;61.37
6218;BME280;3142;48.206;11.550;2024-02-23T11:00:59;94166.75;;;8.16;59.64
6218;BME280;3142;48.206;11.550;2024-02-23T11:03:27;94168.78;;;8.14;59.24
6218;BME280;3142;48.206;11.550;2024-02-23T11:05:54;94164.38;;;8.15;59.46
6218;BME280;3142;48.206;11.550;2024-02-23T11:08:20;94162.22;;;8.12;58.19
6218;BME280;3142;48.206;11.550;2024-02-23T11:10:51;94168.88;;;8.08;59.48
6218;BME280;3142;48.206;11.550;2024-02-23T11:13:18;94174.09;;;8.08;58.90
6218;BME280;3142;48.206;11.550;2024-02-23T11:15:44;94171.41;;;8.14;58.72
6218;BME280;3142;48.206;11.550;2024-02-23T11:18:27;94167.16;;;8.01;57.04
6218;BME280;3142;48.206;11.550;2024-02-23T11:20:54;94163.56;;;8.02;57.78
6218;BME280;3142;48.206;11.550;2024-02-23T11:23:22;94163.09;;;8.06;58.46
6218;BME280;3142;48.206;11.550;2024-02-23T11:26:07;94173.91;;;7.91;60.47
6218;BME280;3142;48.206;11.550;2024-02-23T11:28:42;94169.28;;;7.63;62.05
6218;BME280;3142;48.206;11.550;2024-02-23T11:31:12;94173.41;;;7.52;62.76
6218;BME280;3142;48.206;11.550;2024-02-23T11:33:40;94172.69;;;7.45;64.16
6218;BME280;3142;48.206;11.550;2024-02-23T11:36:07;94168.00;;;7.35;64.95
6218;BME280;3142;48.206;11.550;2024-02-23T11:38:34;94166.50;;;7.28;64.49
6218;BME280;3142;48.206;11.550;2024-02-23T11:41:02;94173.50;;;7.27;63.81
6218;BME280;3142;48.206;11.550;2024-02-23T11:43:28;94167.16;;;7.41;64.07
6218;BME280;3142;48.206;11.550;2024-02-23T11:45:55;94166.31;;;7.59;64.10
6218;BME280;3142;48.206;11.550;2024-02-23T11:48:22;94168.97;;;7.71;63.51
6218;BME280;3142;48.206;11.550;2024-02-23T11:50:50;94173.53;;;7.76;62.61
6218;BME280;3142;48.206;11.550;2024-02-23T11:53:17;94178.22;;;7.67;60.62
6218;BME280;3142;48.206;11.550;2024-02-23T11:55:44;94168.19;;;7.52;60.61
6218;BME280;3142;48.206;11.550;2024-02-23T11:58:11;94170.31;;;7.43;60.94
6218;BME280;3142;48.206;11.550;2024-02-23T12:00:37;94167.78;;;7.37;61.70
6218;BME280;3142;48.206;11.550;2024-02-23T12:03:04;94157.91;;;7.27;62.23
6218;BME280;3142;48.206;11.550;2024-02-23T12:05:30;94148.47;;;7.26;62.62
6218;BME280;3142;48.206;11.550;2024-02-23T12:07:58;94149.72;;;7.24;62.97
6218;BME280;3142;48.206;11.550;2024-02-23T12:10:25;94153.84;;;7.31;62.97
6218;BME280;3142;48.206;11.550;2024-02-23T12:12:53;94146.41;;;7.35;63.52
6218;BME280;3142;48.206;11.550;2024-02-23T12:15:19;94155.72;;;7.42;62.90
6218;BME280;3142;48.206;11.550;2024-02-23T12:17:49;94162.78;;;7.35;63.03
6218;BME280;3142;48.206;11.550;2024-02-23T12:20:16;94161.78;;;7.18;63.88
6218;BME280;3142;48.206;11.550;2024-02-23T12:22:42;94161.22;;;7.16;65.00
6218;BME280;3142;48.206;11.550;2024-02-23T12:25:11;94161.72;;;7.25;65.08
6218;BME280;3142;48.206;11.550;2024-02-23T12:27:38;94162.88;;;7.29;64.11
6218;BME280;3142;48.206;11.550;2024-02-23T12:30:06;94148.47;;;7.26;64.50
6218;BME280;3142;48.206;11.550;2024-02-23T12:32:34;94135.06;;;7.29;64.45
6218;BME280;3142;48.206;11.550;2024-02-23T12:35:00;94124.50;;;7.24;62.94
6218;BME280;3142;48.206;11.550;2024-02-23T12:37:26;94127.69;;;7.26;63.58
6218;BME280;3142;48.206;11.550;2024-02-23T12:39:53;94126.84;;;7.14;63.97
6218;BME280;3142;48.206;11.550;2024-02-23T12:42:21;94134.84;;;7.12;62.79
6218;BME280;3142;48.206;11.550;2024-02-23T12:44:47;94136.88;;;7.10;62.49
6218;BME280;3142;48.206;11.550;2024-02-23T12:47:14;94133.63;;;7.15;62.91
6218;BME280;3142;48.206;11.550;2024-02-23T12:49:40;94140.78;;;7.20;63.09
6218;BME280;3142;48.206;11.550;2024-02-23T12:52:06;94140.03;;;7.12;63.37
6218;BME280;3142;48.206;11.550;2024-02-23T12:54:33;94148.66;;;7.13;63.22
6218;BME280;3142;48.206;11.550;2024-02-23T12:56:59;94148.56;;;7.20;63.67
6218;BME280;3142;48.206;11.550;2024-02-23T12:59:27;94140.84;;;7.13;62.80
6218;BME280;3142;48.206;11.550;2024-02-23T13:01:53;94126.69;;;7.09;63.17
6218;BME280;3142;48.206;11.550;2024-02-23T13:04:20;94126.06;;;7.13;63.08
6218;BME280;3142;48.206;11.550;2024-02-23T13:06:46;94117.66;;;7.11;62.74
6218;BME280;3142;48.206;11.550;2024-02-23T13:09:13;94105.97;;;7.02;62.00
6218;BME280;3142;48.206;11.550;2024-02-23T13:11:39;94120.78;;;7.02;62.57
6218;BME280;3142;48.206;11.550;2024-02-23T13:14:06;94129.16;;;7.04;62.18
6218;BME280;3142;48.206;11.550;2024-02-23T13:16:35;94125.59;;;6.98;61.55
6218;BME280;3142;48.206;11.550;2024-02-23T13:19:02;94134.84;;;6.94;61.14
6218;BME280;3142;48.206;11.550;2024-02-23T13:21:28;94139.38;;;6.99;61.48